createdAt,value
2023-01-18T00:01:41.629Z,8.60
2023-01-18T00:04:10.048Z,8.66
2023-01-18T00:06:40.516Z,8.56
2023-01-18T00:09:16.325Z,8.48
2023-01-18T00:11:45.274Z,8.64
2023-01-18T00:14:13.557Z,8.57
2023-01-18T00:16:43.568Z,8.45
2023-01-18T00:19:15.332Z,8.34
2023-01-18T00:21:43.602Z,8.51
2023-01-18T00:24:15.945Z,8.28
2023-01-18T00:26:45.170Z,8.52
2023-01-18T00:29:13.685Z,8.52
2023-01-18T00:31:48.472Z,8.49
2023-01-18T00:34:16.766Z,8.26
2023-01-18T00:36:45.070Z,8.49
2023-01-18T00:39:15.517Z,8.48
2023-01-18T00:42:00.771Z,8.36
2023-01-18T00:44:29.154Z,8.54
2023-01-18T00:46:59.733Z,8.33
2023-01-18T00:49:30.940Z,8.46
2023-01-18T00:51:59.233Z,8.59
2023-01-18T00:54:27.759Z,8.74
2023-01-18T00:56:59.531Z,8.73
2023-01-18T00:59:33.557Z,8.55
2023-01-18T01:02:06.055Z,8.76
2023-01-18T01:04:56.812Z,8.93
2023-01-18T01:07:25.242Z,8.90
2023-01-18T01:09:53.513Z,8.92
2023-01-18T01:12:39.451Z,8.96
2023-01-18T01:15:28.112Z,8.86
2023-01-18T01:18:17.670Z,9.10
2023-01-18T01:21:04.084Z,8.97
2023-01-18T01:23:53.647Z,8.93
2023-01-18T01:26:23.433Z,8.98
2023-01-18T01:28:52.905Z,8.82
2023-01-18T01:31:21.481Z,8.82
2023-01-18T01:33:51.071Z,8.91
2023-01-18T01:36:31.454Z,9.18
2023-01-18T01:39:00.839Z,9.16
2023-01-18T01:41:29.894Z,8.93
2023-01-18T01:44:04.708Z,9.10
2023-01-18T01:46:38.930Z,9.10
2023-01-18T01:49:11.287Z,9.14
2023-01-18T01:51:41.298Z,9.17
2023-01-18T01:54:11.373Z,9.28
2023-01-18T01:56:40.394Z,9.25
2023-01-18T01:59:10.468Z,8.94
2023-01-18T02:01:43.885Z,8.98
2023-01-18T02:04:28.021Z,8.94
2023-01-18T02:06:56.555Z,8.75
2023-01-18T02:09:24.980Z,8.57
2023-01-18T02:11:55.403Z,8.58
2023-01-18T02:14:27.174Z,8.65
2023-01-18T02:17:02.737Z,8.46
2023-01-18T02:19:59.604Z,8.47
2023-01-18T02:22:40.579Z,8.61
2023-01-18T02:25:28.497Z,8.44
2023-01-18T02:28:09.016Z,8.87
2023-01-18T02:30:39.027Z,8.88
2023-01-18T02:33:09.803Z,9.11
2023-01-18T02:35:43.912Z,9.11
2023-01-18T02:38:14.189Z,8.97
2023-01-18T02:40:50.852Z,8.98
2023-01-18T02:43:37.777Z,9.13
2023-01-18T02:46:26.725Z,9.15
2023-01-18T02:48:57.735Z,8.90
2023-01-18T02:51:27.077Z,9.15
2023-01-18T02:53:56.350Z,8.97
2023-01-18T02:56:27.061Z,9.01
2023-01-18T02:58:58.934Z,8.97
2023-01-18T03:01:34.326Z,8.98
2023-01-18T03:04:06.386Z,9.20
2023-01-18T03:06:39.069Z,8.95
2023-01-18T03:09:08.561Z,9.07
2023-01-18T03:11:41.448Z,9.15
2023-01-18T03:14:17.080Z,9.01
2023-01-18T03:17:00.514Z,8.88
2023-01-18T03:19:52.836Z,9.01
2023-01-18T03:22:43.089Z,8.81
2023-01-18T03:25:10.867Z,8.69
2023-01-18T03:28:02.999Z,8.74
2023-01-18T03:30:51.810Z,8.60
2023-01-18T03:33:37.601Z,8.59
2023-01-18T03:36:06.454Z,8.44
2023-01-18T03:38:37.125Z,8.40
2023-01-18T03:41:07.845Z,8.41
2023-01-18T03:43:38.943Z,8.32
2023-01-18T03:46:11.293Z,8.29
2023-01-18T03:48:39.609Z,8.31
2023-01-18T03:51:13.664Z,8.16
2023-01-18T03:56:33.296Z,8.34
2023-01-18T03:59:03.127Z,8.24
2023-01-18T04:01:45.117Z,8.36
2023-01-18T04:04:13.539Z,8.45
2023-01-18T04:06:42.606Z,8.03
2023-01-18T04:09:12.032Z,8.26
2023-01-18T04:11:50.318Z,8.38
2023-01-18T04:14:19.048Z,8.33
2023-01-18T04:16:49.605Z,8.38
2023-01-18T04:19:19.833Z,8.51
2023-01-18T04:21:50.563Z,8.60
2023-01-18T04:24:18.882Z,8.41
2023-01-18T04:26:51.615Z,8.55
2023-01-18T04:29:19.943Z,8.65
2023-01-18T04:31:50.167Z,8.69
2023-01-18T04:34:23.406Z,8.44
2023-01-18T04:36:54.288Z,8.15
2023-01-18T04:42:05.673Z,7.68
2023-01-18T04:45:02.575Z,7.84
2023-01-18T04:47:37.048Z,7.57
2023-01-18T04:50:14.005Z,7.65
2023-01-18T04:52:42.407Z,7.69
2023-01-18T04:55:16.028Z,7.68
2023-01-18T04:57:44.558Z,7.68
2023-01-18T05:01:35.653Z,7.76
2023-01-18T05:04:36.628Z,7.81
2023-01-18T05:07:05.916Z,7.80
2023-01-18T05:09:37.057Z,7.85
2023-01-18T05:12:18.041Z,7.82
2023-01-18T05:14:46.326Z,7.93
2023-01-18T05:17:17.757Z,7.93
2023-01-18T05:19:51.717Z,7.98
2023-01-18T05:22:20.467Z,7.88
2023-01-18T05:24:53.595Z,7.81
2023-01-18T05:27:53.874Z,8.11
2023-01-18T05:30:22.355Z,8.09
2023-01-18T05:32:50.732Z,7.99
2023-01-18T05:35:20.782Z,8.09
2023-01-18T05:37:49.082Z,8.20
2023-01-18T05:40:18.153Z,8.05
2023-01-18T05:42:51.210Z,8.31
2023-01-18T05:45:19.917Z,8.34
2023-01-18T05:47:50.638Z,8.40
2023-01-18T05:50:22.498Z,8.48
2023-01-18T05:52:51.103Z,8.47
2023-01-18T05:55:28.461Z,8.17
2023-01-18T05:57:56.877Z,8.45
2023-01-18T06:00:27.618Z,8.33
2023-01-18T06:02:56.631Z,8.19
2023-01-18T06:05:29.636Z,8.51
2023-01-18T06:07:58.384Z,8.57
2023-01-18T06:10:27.019Z,8.45
2023-01-18T06:12:56.472Z,8.36
2023-01-18T06:15:26.147Z,8.34
2023-01-18T06:17:57.170Z,8.41
2023-01-18T06:20:31.616Z,8.49
2023-01-18T06:23:03.311Z,8.54
2023-01-18T06:25:31.981Z,8.63
2023-01-18T06:28:00.230Z,8.71
2023-01-18T06:30:28.560Z,8.69
2023-01-18T06:32:57.708Z,8.68
2023-01-18T06:35:26.513Z,8.55
2023-01-18T06:38:03.826Z,8.76
2023-01-18T06:40:32.583Z,8.50
2023-01-18T06:43:01.794Z,8.70
2023-01-18T06:45:33.678Z,8.57
2023-01-18T06:48:02.214Z,8.87
2023-01-18T06:50:30.829Z,8.91
2023-01-18T06:53:03.037Z,8.76
2023-01-18T06:55:39.197Z,8.75
2023-01-18T06:58:10.707Z,9.00
2023-01-18T07:00:39.392Z,8.89
2023-01-18T07:03:10.191Z,8.93
2023-01-18T07:05:39.762Z,9.00
2023-01-18T07:08:12.249Z,9.05
2023-01-18T07:10:44.981Z,8.81
2023-01-18T07:13:13.650Z,8.83
2023-01-18T07:15:44.163Z,8.92
2023-01-18T07:18:13.020Z,9.01
2023-01-18T07:20:41.480Z,8.98
2023-01-18T07:23:13.114Z,9.01
2023-01-18T07:25:44.349Z,8.77
2023-01-18T07:28:13.426Z,8.87
2023-01-18T07:30:42.093Z,9.04
2023-01-18T07:33:11.726Z,8.93
2023-01-18T07:35:40.235Z,9.19
2023-01-18T07:38:08.894Z,9.17
2023-01-18T07:40:37.336Z,8.98
2023-01-18T07:43:10.997Z,9.33
2023-01-18T07:45:41.865Z,9.39
2023-01-18T07:48:14.325Z,9.26
2023-01-18T07:50:46.271Z,9.26
2023-01-18T07:53:14.769Z,9.35
2023-01-18T07:55:43.293Z,9.37
2023-01-18T07:58:12.819Z,9.31
2023-01-18T08:00:44.506Z,9.39
2023-01-18T08:03:14.938Z,9.49
2023-01-18T08:05:51.370Z,9.26
2023-01-18T08:08:27.851Z,9.38
2023-01-18T08:10:56.853Z,9.38
2023-01-18T08:13:28.622Z,9.19
2023-01-18T08:15:57.333Z,9.46
2023-01-18T08:18:25.988Z,9.52
2023-01-18T08:20:55.315Z,9.58
2023-01-18T08:23:25.466Z,9.52
2023-01-18T08:25:54.056Z,9.35
2023-01-18T08:28:26.037Z,9.58
2023-01-18T08:31:10.312Z,9.51
2023-01-18T08:33:41.458Z,9.62
2023-01-18T08:36:13.964Z,9.75
2023-01-18T08:38:44.817Z,9.90
2023-01-18T08:41:13.928Z,9.85
2023-01-18T08:43:43.091Z,9.92
2023-01-18T08:46:23.273Z,9.72
2023-01-18T08:48:54.505Z,9.60
2023-01-18T08:51:29.405Z,9.94
2023-01-18T08:53:59.053Z,9.85
2023-01-18T08:56:28.398Z,9.96
2023-01-18T08:58:57.790Z,9.82
2023-01-18T09:01:27.801Z,9.76
2023-01-18T09:04:04.054Z,9.73
2023-01-18T09:06:41.745Z,9.98
2023-01-18T09:09:21.187Z,9.83
2023-01-18T09:11:52.542Z,9.68
2023-01-18T09:14:21.315Z,9.92
2023-01-18T09:16:58.943Z,9.76
2023-01-18T09:19:27.510Z,9.94
2023-01-18T09:21:56.162Z,9.84
2023-01-18T09:24:26.515Z,9.77
2023-01-18T09:26:58.042Z,9.87
2023-01-18T09:29:28.727Z,9.72
2023-01-18T09:32:10.593Z,10.03
2023-01-18T09:34:44.106Z,10.08
2023-01-18T09:37:55.091Z,9.95
2023-01-18T09:40:50.779Z,10.10
2023-01-18T09:43:56.563Z,9.94
2023-01-18T09:49:29.943Z,9.93
2023-01-18T09:52:23.556Z,9.84
2023-01-18T09:54:55.159Z,9.75
2023-01-18T10:00:43.798Z,9.40
2023-01-18T10:03:18.439Z,9.22
2023-01-18T10:06:08.758Z,9.23
2023-01-18T10:08:57.712Z,9.16
2023-01-18T10:12:13.202Z,9.18
2023-01-18T10:30:49.869Z,9.21
2023-01-18T10:33:28.897Z,9.15
2023-01-18T10:35:59.863Z,9.36
2023-01-18T10:39:15.069Z,9.38
2023-01-18T10:41:54.106Z,9.13
2023-01-18T10:52:42.536Z,9.79
2023-01-18T10:55:20.555Z,9.98
2023-01-18T11:00:42.725Z,10.09
2023-01-18T11:03:49.417Z,10.07
2023-01-18T11:06:24.521Z,10.21
2023-01-18T11:08:53.448Z,10.25
2023-01-18T11:11:53.869Z,10.27
2023-01-18T11:14:30.051Z,10.14
2023-01-18T11:17:10.133Z,10.38
2023-01-18T11:19:43.936Z,10.55
2023-01-18T11:22:58.305Z,10.68
2023-01-18T11:25:38.280Z,10.76
2023-01-18T11:28:20.992Z,10.73
2023-01-18T11:31:16.915Z,10.96
2023-01-18T11:33:55.330Z,10.80
2023-01-18T11:36:35.595Z,10.70
2023-01-18T11:39:31.189Z,10.72
2023-01-18T11:42:58.090Z,10.79
2023-01-18T11:45:45.942Z,10.86
2023-01-18T11:48:26.553Z,10.93
2023-01-18T11:51:00.571Z,10.62
2023-01-18T11:53:37.740Z,10.81
2023-01-18T11:56:08.563Z,10.91
2023-01-18T12:02:09.538Z,11.03
2023-01-18T12:04:45.282Z,11.23
2023-01-18T12:10:36.999Z,11.24
2023-01-18T12:13:26.839Z,11.40
2023-01-18T12:16:04.523Z,11.32
2023-01-18T12:18:48.736Z,11.37
2023-01-18T12:22:26.925Z,11.34
2023-01-18T12:25:09.639Z,11.35
2023-01-18T12:27:41.191Z,11.09
2023-01-18T12:31:27.460Z,11.32
2023-01-18T12:35:22.916Z,11.20
2023-01-18T12:37:59.537Z,11.07
2023-01-18T12:40:45.644Z,11.11
2023-01-18T12:43:27.211Z,11.31
2023-01-18T12:46:04.914Z,11.29
2023-01-18T12:48:38.434Z,11.24
2023-01-18T12:51:14.135Z,11.44
2023-01-18T12:53:54.817Z,11.42
2023-01-18T12:56:34.382Z,11.50
2023-01-18T12:59:19.897Z,11.55
2023-01-18T13:02:31.352Z,11.49
2023-01-18T13:05:39.769Z,11.71
2023-01-18T13:08:40.499Z,11.54
2023-01-18T13:11:12.231Z,11.41
2023-01-18T13:13:45.108Z,11.35
2023-01-18T13:17:05.544Z,11.30
2023-01-18T13:19:43.613Z,11.02
2023-01-18T13:22:25.724Z,11.31
2023-01-18T13:25:15.929Z,11.27
2023-01-18T13:28:00.964Z,11.15
2023-01-18T13:30:35.252Z,11.10
2023-01-18T13:37:26.993Z,10.86
2023-01-18T13:52:33.290Z,11.72
2023-01-18T13:59:29.271Z,11.49
2023-01-18T14:02:07.763Z,11.46
2023-01-18T14:04:36.453Z,11.52
2023-01-18T14:07:06.393Z,11.43
2023-01-18T14:14:09.829Z,11.03
2023-01-18T14:16:55.277Z,11.08
2023-01-18T14:19:39.388Z,11.31
2023-01-18T14:26:25.706Z,10.83
2023-01-18T14:28:56.882Z,10.92
2023-01-18T14:31:28.056Z,10.95
2023-01-18T14:34:56.283Z,11.12
2023-01-18T14:37:28.808Z,10.77
2023-01-18T14:40:21.977Z,10.92
2023-01-18T14:42:53.360Z,10.73
2023-01-18T14:45:31.909Z,10.67
2023-01-18T14:48:01.589Z,10.83
2023-01-18T14:50:33.599Z,10.78
2023-01-18T14:53:33.599Z,10.62
2023-01-18T14:56:24.774Z,10.81
2023-01-18T14:58:56.010Z,10.75
2023-01-18T15:01:27.574Z,10.64
2023-01-18T15:03:56.213Z,10.87
2023-01-18T15:06:31.185Z,11.03
2023-01-18T15:09:05.847Z,11.07
2023-01-18T15:11:36.716Z,10.90
2023-01-18T15:14:12.160Z,10.86
2023-01-18T15:16:42.091Z,10.96
2023-01-18T15:19:20.348Z,11.09
2023-01-18T15:21:49.467Z,10.82
2023-01-18T15:24:22.672Z,10.77
2023-01-18T15:26:57.191Z,10.93
2023-01-18T15:29:26.657Z,10.80
2023-01-18T15:31:57.737Z,10.76
2023-01-18T15:34:30.123Z,10.78
2023-01-18T15:37:04.790Z,10.81
2023-01-18T15:39:37.187Z,10.73
2023-01-18T15:42:16.346Z,10.80
2023-01-18T15:44:48.415Z,10.78
2023-01-18T15:47:26.967Z,10.75
2023-01-18T15:49:59.803Z,10.71
2023-01-18T15:52:39.011Z,10.63
2023-01-18T15:55:19.568Z,10.66
2023-01-18T15:57:56.995Z,10.67
2023-01-18T16:00:31.116Z,10.68
2023-01-18T16:02:59.569Z,10.63
2023-01-18T16:05:33.880Z,10.42
2023-01-18T16:08:26.939Z,10.57
2023-01-18T16:10:57.032Z,10.28
2023-01-18T16:13:36.728Z,10.41
2023-01-18T16:16:16.577Z,10.41
2023-01-18T16:18:45.910Z,10.35
2023-01-18T16:21:16.205Z,10.07
2023-01-18T16:23:49.622Z,10.10
2023-01-18T16:26:23.176Z,9.82
2023-01-18T16:28:52.358Z,9.58
2023-01-18T16:31:22.973Z,9.30
2023-01-18T16:33:52.129Z,9.27
2023-01-18T16:36:20.164Z,9.20
2023-01-18T16:38:50.642Z,9.11
2023-01-18T16:41:23.864Z,8.87
2023-01-18T16:43:52.227Z,9.07
2023-01-18T16:46:23.529Z,9.18
2023-01-18T16:48:51.737Z,9.16
2023-01-18T16:51:20.063Z,9.18
2023-01-18T16:53:49.627Z,9.12
2023-01-18T16:56:23.838Z,9.34
2023-01-18T16:58:52.654Z,9.38
2023-01-18T17:01:38.186Z,9.51
2023-01-18T17:04:07.617Z,9.48
2023-01-18T17:06:36.066Z,9.55
2023-01-18T17:09:18.985Z,9.32
2023-01-18T17:11:48.719Z,9.59
2023-01-18T17:14:17.290Z,9.54
2023-01-18T17:16:45.887Z,9.34
2023-01-18T17:19:14.549Z,9.48
2023-01-18T17:21:42.701Z,9.70
2023-01-18T17:24:11.021Z,9.63
2023-01-18T17:26:39.644Z,9.75
2023-01-18T17:29:17.466Z,9.70
2023-01-18T17:31:52.300Z,9.76
2023-01-18T17:34:28.009Z,9.66
2023-01-18T17:36:57.693Z,9.70
2023-01-18T17:39:37.009Z,9.78
2023-01-18T17:42:18.997Z,9.61
2023-01-18T17:45:02.329Z,9.50
2023-01-18T17:47:32.894Z,9.74
2023-01-18T17:50:09.001Z,9.71
2023-01-18T17:52:37.219Z,9.72
2023-01-18T17:55:17.852Z,9.76
2023-01-18T17:57:47.880Z,9.79
2023-01-18T18:00:18.026Z,9.84
2023-01-18T18:02:48.204Z,9.88
2023-01-18T18:05:17.584Z,9.90
2023-01-18T18:07:45.603Z,9.70
2023-01-18T18:10:13.909Z,9.85
2023-01-18T18:12:42.175Z,9.90
2023-01-18T18:15:10.542Z,9.83
2023-01-18T18:17:40.177Z,9.65
2023-01-18T18:20:24.607Z,9.84
2023-01-18T18:22:56.172Z,9.74
2023-01-18T18:25:24.390Z,9.78
2023-01-18T18:27:52.428Z,9.80
2023-01-18T18:30:20.842Z,9.71
2023-01-18T18:32:51.129Z,9.51
2023-01-18T18:35:25.357Z,9.74
2023-01-18T18:37:55.979Z,9.56
2023-01-18T18:40:24.415Z,9.44
2023-01-18T18:43:02.011Z,9.49
2023-01-18T18:45:31.956Z,9.59
2023-01-18T18:48:01.614Z,9.55
2023-01-18T18:50:30.049Z,9.50
2023-01-18T18:53:00.141Z,9.27
2023-01-18T18:55:34.983Z,9.53
2023-01-18T18:58:10.666Z,9.46
2023-01-18T19:00:38.867Z,9.53
2023-01-18T19:03:12.687Z,9.45
2023-01-18T19:05:41.046Z,9.54
2023-01-18T19:08:09.554Z,9.55
2023-01-18T19:10:40.041Z,9.58
2023-01-18T19:13:10.750Z,9.42
2023-01-18T19:15:38.980Z,9.60
2023-01-18T19:18:07.171Z,9.63
2023-01-18T19:20:44.881Z,9.67
2023-01-18T19:23:15.707Z,9.55
2023-01-18T19:25:43.999Z,9.49
2023-01-18T19:28:12.170Z,9.53
2023-01-18T19:30:45.682Z,9.51
2023-01-18T19:33:18.895Z,9.57
2023-01-18T19:35:50.307Z,9.44
2023-01-18T19:38:18.602Z,9.55
2023-01-18T19:40:48.094Z,9.35
2023-01-18T19:43:16.289Z,9.58
2023-01-18T19:45:47.182Z,9.64
2023-01-18T19:48:19.628Z,9.61
2023-01-18T19:50:50.286Z,9.54
2023-01-18T19:53:20.058Z,9.58
2023-01-18T19:55:56.950Z,9.62
2023-01-18T19:58:30.060Z,9.79
2023-01-18T20:01:01.030Z,9.80
2023-01-18T20:03:29.543Z,9.68
2023-01-18T20:05:59.347Z,9.69
2023-01-18T20:08:27.481Z,9.88
2023-01-18T20:10:56.047Z,9.73
2023-01-18T20:13:24.532Z,9.76
2023-01-18T20:15:54.620Z,9.69
2023-01-18T20:18:22.703Z,9.66
2023-01-18T20:20:51.771Z,9.58
2023-01-18T20:23:22.074Z,9.60
2023-01-18T20:25:53.134Z,9.52
2023-01-18T20:28:22.436Z,9.60
2023-01-18T20:30:50.606Z,9.35
2023-01-18T20:33:18.733Z,9.47
2023-01-18T20:35:48.177Z,9.52
2023-01-18T20:38:16.197Z,9.58
2023-01-18T20:40:49.601Z,9.52
2023-01-18T20:43:18.802Z,9.67
2023-01-18T20:45:46.985Z,9.70
2023-01-18T20:48:16.575Z,9.64
2023-01-18T20:50:46.029Z,9.76
2023-01-18T20:53:14.714Z,9.64
2023-01-18T20:55:43.300Z,9.51
2023-01-18T20:58:17.422Z,9.73
2023-01-18T21:00:45.452Z,9.71
2023-01-18T21:03:14.434Z,9.73
2023-01-18T21:05:51.235Z,9.82
2023-01-18T21:08:19.968Z,9.84
2023-01-18T21:10:49.448Z,9.68
2023-01-18T21:13:19.385Z,9.94
2023-01-18T21:15:47.983Z,9.98
2023-01-18T21:18:16.908Z,10.01
2023-01-18T21:20:48.121Z,9.77
2023-01-18T21:23:25.908Z,9.97
2023-01-18T21:25:55.256Z,9.76
2023-01-18T21:28:24.746Z,9.93
2023-01-18T21:30:53.054Z,9.97
2023-01-18T21:33:21.148Z,9.98
2023-01-18T21:35:49.144Z,9.92
2023-01-18T21:39:33.223Z,9.98
2023-01-18T21:42:18.590Z,9.92
2023-01-18T21:46:00.076Z,9.94
2023-01-18T21:48:30.660Z,9.73
2023-01-18T21:51:17.766Z,9.98
2023-01-18T21:54:18.349Z,10.01
2023-01-18T21:56:46.482Z,10.09
2023-01-18T21:59:14.900Z,10.14
2023-01-18T22:01:49.824Z,9.97
2023-01-18T22:04:39.059Z,10.04
2023-01-18T22:07:07.218Z,10.11
2023-01-18T22:09:38.939Z,10.10
2023-01-18T22:12:07.658Z,10.03
2023-01-18T22:14:35.859Z,9.74
2023-01-18T22:17:04.172Z,9.90
2023-01-18T22:19:33.670Z,9.77
2023-01-18T22:22:02.057Z,9.49
2023-01-18T22:24:49.666Z,9.64
2023-01-18T22:27:22.786Z,9.58
2023-01-18T22:29:58.543Z,9.54
2023-01-18T22:32:30.177Z,9.55
2023-01-18T22:35:05.604Z,9.32
2023-01-18T22:37:45.456Z,9.53
2023-01-18T22:40:16.966Z,9.39
2023-01-18T22:46:51.052Z,9.63
2023-01-18T22:49:30.598Z,9.57
2023-01-18T22:52:03.381Z,9.58
2023-01-18T22:54:37.304Z,9.68
2023-01-18T23:03:32.499Z,9.77
2023-01-18T23:06:03.988Z,9.78
2023-01-18T23:08:47.390Z,9.78
2023-01-18T23:11:38.462Z,9.58
2023-01-18T23:14:27.120Z,9.83
2023-01-18T23:17:15.955Z,9.49
2023-01-18T23:19:55.015Z,9.79
2023-01-18T23:22:23.160Z,9.73
2023-01-18T23:24:54.954Z,9.82
2023-01-18T23:27:23.111Z,9.84
2023-01-18T23:29:58.239Z,9.86
2023-01-18T23:32:31.339Z,9.67
2023-01-18T23:34:59.899Z,9.86
2023-01-18T23:37:36.864Z,9.85
2023-01-18T23:40:25.869Z,9.88
2023-01-18T23:43:12.052Z,9.83
2023-01-18T23:45:59.400Z,9.92
2023-01-18T23:48:46.209Z,9.93
2023-01-18T23:51:34.552Z,9.90
2023-01-18T23:54:18.113Z,9.78
2023-01-18T23:56:50.564Z,9.88
2023-01-18T23:59:18.690Z,9.87
